sensor_id;sensor_type;location;lat;lon;timestamp;noise_LAeq;noise_LA_min;noise_LA_max;noise_LA01;noise_LA95
45109;Laerm;30447;48.742;8.972;2022-12-18T00:01:26;39.03;35.36;44.39;;
45109;Laerm;30447;48.742;8.972;2022-12-18T00:03:55;39.19;35.36;45.97;;
45109;Laerm;30447;48.742;8.972;2022-12-18T00:06:27;39.62;35.66;42.98;;
45109;Laerm;30447;48.742;8.972;2022-12-18T00:08:57;39.17;35.94;41.48;;
45109;Laerm;30447;48.742;8.972;2022-12-18T00:11:28;39.24;36.20;49.07;;
45109;Laerm;30447;48.742;8.972;2022-12-18T00:13:58;39.22;35.66;41.89;;
45109;Laerm;30447;48.742;8.972;2022-12-18T00:16:27;39.57;35.66;43.04;;
45109;Laerm;30447;48.742;8.972;2022-12-18T00:18:56;39.18;34.31;42.22;;
45109;Laerm;30447;48.742;8.972;2022-12-18T00:21:23;39.00;35.66;42.09;;
45109;Laerm;30447;48.742;8.972;2022-12-18T00:23:51;38.90;35.66;42.09;;
45109;Laerm;30447;48.742;8.972;2022-12-18T00:26:25;39.11;35.66;41.61;;
45109;Laerm;30447;48.742;8.972;2022-12-18T00:28:54;38.99;35.66;41.38;;
45109;Laerm;30447;48.742;8.972;2022-12-18T00:31:25;38.90;35.04;41.19;;
45109;Laerm;30447;48.742;8.972;2022-12-18T00:33:55;38.81;35.04;41.75;;
45109;Laerm;30447;48.742;8.972;2022-12-18T00:36:29;38.89;35.04;41.46;;
45109;Laerm;30447;48.742;8.972;2022-12-18T00:38:58;39.16;35.04;41.68;;
45109;Laerm;30447;48.742;8.972;2022-12-18T00:41:27;38.83;35.04;41.30;;
45109;Laerm;30447;48.742;8.972;2022-12-18T00:44:16;38.74;34.69;41.38;;
45109;Laerm;30447;48.742;8.972;2022-12-18T00:46:45;38.94;35.36;43.19;;
45109;Laerm;30447;48.742;8.972;2022-12-18T00:49:13;39.21;35.36;44.62;;
45109;Laerm;30447;48.742;8.972;2022-12-18T00:51:40;38.64;34.31;42.35;;
45109;Laerm;30447;48.742;8.972;2022-12-18T00:54:07;38.68;34.31;41.68;;
45109;Laerm;30447;48.742;8.972;2022-12-18T00:56:37;39.03;35.36;41.61;;
45109;Laerm;30447;48.742;8.972;2022-12-18T00:59:05;39.04;35.36;41.46;;
45109;Laerm;30447;48.742;8.972;2022-12-18T01:01:32;38.77;35.36;41.33;;
45109;Laerm;30447;48.742;8.972;2022-12-18T01:04:01;38.77;34.69;41.68;;
45109;Laerm;30447;48.742;8.972;2022-12-18T01:06:29;39.00;34.69;43.72;;
45109;Laerm;30447;48.742;8.972;2022-12-18T01:08:56;38.87;35.66;41.61;;
45109;Laerm;30447;48.742;8.972;2022-12-18T01:11:22;39.42;35.04;51.29;;
45109;Laerm;30447;48.742;8.972;2022-12-18T01:13:49;39.32;35.36;43.09;;
45109;Laerm;30447;48.742;8.972;2022-12-18T01:16:17;39.11;35.04;42.16;;
45109;Laerm;30447;48.742;8.972;2022-12-18T01:18:44;38.71;35.04;41.14;;
45109;Laerm;30447;48.742;8.972;2022-12-18T01:21:15;38.70;35.36;41.30;;
45109;Laerm;30447;48.742;8.972;2022-12-18T01:23:42;38.85;34.69;46.93;;
45109;Laerm;30447;48.742;8.972;2022-12-18T01:26:13;38.65;35.04;41.14;;
45109;Laerm;30447;48.742;8.972;2022-12-18T01:28:40;38.92;35.04;41.53;;
45109;Laerm;30447;48.742;8.972;2022-12-18T01:31:18;39.01;35.04;49.55;;
45109;Laerm;30447;48.742;8.972;2022-12-18T01:33:46;39.10;35.66;41.89;;
45109;Laerm;30447;48.742;8.972;2022-12-18T01:36:39;38.95;35.04;41.68;;
45109;Laerm;30447;48.742;8.972;2022-12-18T01:39:13;38.80;35.36;41.82;;
45109;Laerm;30447;48.742;8.972;2022-12-18T01:41:41;38.62;35.36;41.53;;
45109;Laerm;30447;48.742;8.972;2022-12-18T01:45:26;38.95;35.01;41.46;;
45109;Laerm;30447;48.742;8.972;2022-12-18T01:48:02;38.92;35.59;44.80;;
45109;Laerm;30447;48.742;8.972;2022-12-18T01:50:38;38.77;34.69;41.89;;
45109;Laerm;30447;48.742;8.972;2022-12-18T01:53:11;39.04;35.36;42.88;;
45109;Laerm;30447;48.742;8.972;2022-12-18T01:55:51;39.07;35.04;42.22;;
45109;Laerm;30447;48.742;8.972;2022-12-18T01:58:30;38.87;35.04;42.09;;
45109;Laerm;30447;48.742;8.972;2022-12-18T02:00:59;38.70;35.04;41.82;;
45109;Laerm;30447;48.742;8.972;2022-12-18T02:03:26;39.32;35.04;43.60;;
45109;Laerm;30447;48.742;8.972;2022-12-18T02:06:10;38.83;35.04;42.24;;
45109;Laerm;30447;48.742;8.972;2022-12-18T02:17:53;38.80;34.69;41.38;;
45109;Laerm;30447;48.742;8.972;2022-12-18T02:20:57;38.83;34.31;44.43;;
45109;Laerm;30447;48.742;8.972;2022-12-18T02:26:47;38.77;35.36;42.53;;
45109;Laerm;30447;48.742;8.972;2022-12-18T02:29:29;38.75;35.04;41.61;;
45109;Laerm;30447;48.742;8.972;2022-12-18T02:32:00;38.89;34.69;43.72;;
45109;Laerm;30447;48.742;8.972;2022-12-18T02:34:37;38.90;35.36;50.14;;
45109;Laerm;30447;48.742;8.972;2022-12-18T02:37:12;38.44;34.69;41.30;;
45109;Laerm;30447;48.742;8.972;2022-12-18T02:39:44;38.85;35.04;42.03;;
45109;Laerm;30447;48.742;8.972;2022-12-18T02:42:12;38.85;35.04;43.86;;
45109;Laerm;30447;48.742;8.972;2022-12-18T02:44:45;38.88;35.36;41.30;;
45109;Laerm;30447;48.742;8.972;2022-12-18T02:47:19;38.82;35.04;42.03;;
45109;Laerm;30447;48.742;8.972;2022-12-18T02:50:05;38.49;34.31;42.47;;
45109;Laerm;30447;48.742;8.972;2022-12-18T03:01:30;38.55;34.69;41.89;;
45109;Laerm;30447;48.742;8.972;2022-12-18T03:04:26;39.00;35.04;41.96;;
45109;Laerm;30447;48.742;8.972;2022-12-18T03:07:02;38.93;35.04;49.34;;
45109;Laerm;30447;48.742;8.972;2022-12-18T03:09:41;38.43;34.69;41.22;;
45109;Laerm;30447;48.742;8.972;2022-12-18T03:12:31;38.54;34.69;41.53;;
45109;Laerm;30447;48.742;8.972;2022-12-18T03:15:14;38.58;34.69;41.06;;
45109;Laerm;30447;48.742;8.972;2022-12-18T03:17:56;38.50;33.44;40.98;;
45109;Laerm;30447;48.742;8.972;2022-12-18T03:20:31;38.42;34.31;41.22;;
45109;Laerm;30447;48.742;8.972;2022-12-18T03:23:09;38.61;34.34;40.98;;
45109;Laerm;30447;48.742;8.972;2022-12-18T03:25:43;38.82;35.04;45.17;;
45109;Laerm;30447;48.742;8.972;2022-12-18T03:28:19;38.83;34.69;41.38;;
45109;Laerm;30447;48.742;8.972;2022-12-18T03:30:55;38.65;35.04;42.82;;
45109;Laerm;30447;48.742;8.972;2022-12-18T03:33:56;38.53;34.69;43.14;;
45109;Laerm;30447;48.742;8.972;2022-12-18T03:36:25;38.79;34.69;42.22;;
45109;Laerm;30447;48.742;8.972;2022-12-18T03:38:52;38.64;34.31;41.46;;
45109;Laerm;30447;48.742;8.972;2022-12-18T03:41:43;38.96;33.90;45.83;;
45109;Laerm;30447;48.742;8.972;2022-12-18T03:48:07;38.44;34.31;42.35;;
45109;Laerm;30447;48.742;8.972;2022-12-18T03:50:48;38.53;33.90;42.98;;
45109;Laerm;30447;48.742;8.972;2022-12-18T03:53:41;38.61;34.69;41.30;;
45109;Laerm;30447;48.742;8.972;2022-12-18T03:56:16;38.35;32.93;40.89;;
45109;Laerm;30447;48.742;8.972;2022-12-18T03:58:45;38.67;35.04;48.32;;
45109;Laerm;30447;48.742;8.972;2022-12-18T04:01:17;38.84;35.04;41.96;;
45109;Laerm;30447;48.742;8.972;2022-12-18T04:03:50;38.52;34.69;42.98;;
45109;Laerm;30447;48.742;8.972;2022-12-18T04:06:19;38.46;34.69;41.53;;
45109;Laerm;30447;48.742;8.972;2022-12-18T04:08:47;38.48;34.31;41.75;;
45109;Laerm;30447;48.742;8.972;2022-12-18T04:11:15;38.46;35.04;41.30;;
45109;Laerm;30447;48.742;8.972;2022-12-18T04:13:42;38.78;33.44;41.61;;
45109;Laerm;30447;48.742;8.972;2022-12-18T04:16:09;38.80;35.04;41.46;;
45109;Laerm;30447;48.742;8.972;2022-12-18T04:18:37;39.11;35.04;41.75;;
45109;Laerm;30447;48.742;8.972;2022-12-18T04:21:03;38.71;34.69;41.46;;
45109;Laerm;30447;48.742;8.972;2022-12-18T04:23:30;38.62;34.69;42.16;;
45109;Laerm;30447;48.742;8.972;2022-12-18T04:25:57;39.28;34.69;42.76;;
45109;Laerm;30447;48.742;8.972;2022-12-18T04:28:23;38.91;34.69;42.13;;
45109;Laerm;30447;48.742;8.972;2022-12-18T04:30:50;38.56;34.69;41.68;;
45109;Laerm;30447;48.742;8.972;2022-12-18T04:33:17;38.60;33.90;42.03;;
45109;Laerm;30447;48.742;8.972;2022-12-18T04:35:44;38.78;35.36;41.22;;
45109;Laerm;30447;48.742;8.972;2022-12-18T04:38:11;38.79;35.04;47.57;;
45109;Laerm;30447;48.742;8.972;2022-12-18T04:40:38;38.55;35.04;41.06;;
45109;Laerm;30447;48.742;8.972;2022-12-18T04:43:05;38.79;35.04;41.30;;
45109;Laerm;30447;48.742;8.972;2022-12-18T04:45:33;38.58;34.69;41.61;;
45109;Laerm;30447;48.742;8.972;2022-12-18T04:48:01;38.83;35.04;43.04;;
45109;Laerm;30447;48.742;8.972;2022-12-18T04:50:30;38.52;35.04;41.06;;
45109;Laerm;30447;48.742;8.972;2022-12-18T04:52:57;38.54;34.69;41.46;;
45109;Laerm;30447;48.742;8.972;2022-12-18T04:55:25;38.60;33.90;41.38;;
45109;Laerm;30447;48.742;8.972;2022-12-18T04:57:52;38.74;35.04;41.38;;
45109;Laerm;30447;48.742;8.972;2022-12-18T05:00:20;38.90;35.36;41.68;;
45109;Laerm;30447;48.742;8.972;2022-12-18T05:02:46;39.00;35.04;41.96;;
45109;Laerm;30447;48.742;8.972;2022-12-18T05:05:13;38.86;35.66;41.61;;
45109;Laerm;30447;48.742;8.972;2022-12-18T05:07:40;38.79;35.36;41.53;;
45109;Laerm;30447;48.742;8.972;2022-12-18T05:10:07;38.77;34.31;41.38;;
45109;Laerm;30447;48.742;8.972;2022-12-18T05:12:34;39.12;35.04;41.53;;
45109;Laerm;30447;48.742;8.972;2022-12-18T05:15:20;39.21;34.69;41.75;;
45109;Laerm;30447;48.742;8.972;2022-12-18T05:17:47;39.11;35.04;41.96;;
45109;Laerm;30447;48.742;8.972;2022-12-18T05:20:14;39.14;35.36;41.75;;
45109;Laerm;30447;48.742;8.972;2022-12-18T05:22:40;39.09;35.04;41.61;;
45109;Laerm;30447;48.742;8.972;2022-12-18T05:25:07;39.06;35.59;41.96;;
45109;Laerm;30447;48.742;8.972;2022-12-18T05:27:34;38.56;35.04;41.14;;
45109;Laerm;30447;48.742;8.972;2022-12-18T05:30:01;38.51;34.31;41.06;;
45109;Laerm;30447;48.742;8.972;2022-12-18T05:32:27;38.82;34.69;41.75;;
45109;Laerm;30447;48.742;8.972;2022-12-18T05:34:54;39.18;35.36;41.96;;
45109;Laerm;30447;48.742;8.972;2022-12-18T05:37:20;39.13;35.94;41.68;;
45109;Laerm;30447;48.742;8.972;2022-12-18T05:39:47;38.70;35.36;41.61;;
45109;Laerm;30447;48.742;8.972;2022-12-18T05:42:14;38.59;34.31;41.46;;
45109;Laerm;30447;48.742;8.972;2022-12-18T05:44:40;38.58;35.04;41.30;;
45109;Laerm;30447;48.742;8.972;2022-12-18T05:47:07;38.83;35.04;41.38;;
45109;Laerm;30447;48.742;8.972;2022-12-18T05:49:34;39.08;35.04;41.75;;
45109;Laerm;30447;48.742;8.972;2022-12-18T05:52:00;39.04;35.04;41.96;;
45109;Laerm;30447;48.742;8.972;2022-12-18T05:54:27;38.94;34.69;41.53;;
45109;Laerm;30447;48.742;8.972;2022-12-18T05:56:54;38.89;35.04;41.61;;
45109;Laerm;30447;48.742;8.972;2022-12-18T05:59:21;39.29;35.04;44.07;;
45109;Laerm;30447;48.742;8.972;2022-12-18T06:01:47;39.17;34.31;41.75;;
45109;Laerm;30447;48.742;8.972;2022-12-18T06:04:14;39.13;35.36;41.68;;
45109;Laerm;30447;48.742;8.972;2022-12-18T06:06:41;38.85;34.69;41.22;;
45109;Laerm;30447;48.742;8.972;2022-12-18T06:09:07;38.92;35.04;41.89;;
45109;Laerm;30447;48.742;8.972;2022-12-18T06:11:37;39.08;35.36;41.53;;
45109;Laerm;30447;48.742;8.972;2022-12-18T06:14:06;39.31;35.36;42.47;;
45109;Laerm;30447;48.742;8.972;2022-12-18T06:16:32;39.28;35.36;42.29;;
45109;Laerm;30447;48.742;8.972;2022-12-18T06:19:03;39.17;35.36;41.96;;
45109;Laerm;30447;48.742;8.972;2022-12-18T06:21:32;39.47;36.20;46.18;;
45109;Laerm;30447;48.742;8.972;2022-12-18T06:24:00;39.59;35.66;42.03;;
45109;Laerm;30447;48.742;8.972;2022-12-18T06:26:26;39.47;35.94;41.96;;
45109;Laerm;30447;48.742;8.972;2022-12-18T06:28:53;41.77;35.66;61.63;;
45109;Laerm;30447;48.742;8.972;2022-12-18T06:31:20;42.61;36.69;60.57;;
45109;Laerm;30447;48.742;8.972;2022-12-18T06:33:46;44.14;36.69;69.96;;
45109;Laerm;30447;48.742;8.972;2022-12-18T06:36:14;41.47;35.94;62.21;;
45109;Laerm;30447;48.742;8.972;2022-12-18T06:38:43;39.97;35.94;49.46;;
45109;Laerm;30447;48.742;8.972;2022-12-18T06:41:18;39.78;34.69;42.93;;
45109;Laerm;30447;48.742;8.972;2022-12-18T06:43:45;40.05;35.36;47.00;;
45109;Laerm;30447;48.742;8.972;2022-12-18T06:46:13;39.55;35.94;42.71;;
45109;Laerm;30447;48.742;8.972;2022-12-18T06:48:39;39.83;35.66;44.94;;
45109;Laerm;30447;48.742;8.972;2022-12-18T06:51:06;39.99;35.94;48.90;;
45109;Laerm;30447;48.742;8.972;2022-12-18T06:53:33;40.68;36.69;53.32;;
45109;Laerm;30447;48.742;8.972;2022-12-18T06:56:06;40.39;37.12;43.99;;
45109;Laerm;30447;48.742;8.972;2022-12-18T06:58:33;40.20;36.69;42.71;;
45109;Laerm;30447;48.742;8.972;2022-12-18T07:01:05;39.98;35.94;50.49;;
45109;Laerm;30447;48.742;8.972;2022-12-18T07:03:32;39.99;37.32;44.62;;
45109;Laerm;30447;48.742;8.972;2022-12-18T07:05:59;40.52;36.91;51.00;;
45109;Laerm;30447;48.742;8.972;2022-12-18T07:08:26;40.33;35.66;50.00;;
45109;Laerm;30447;48.742;8.972;2022-12-18T07:10:52;40.64;36.45;54.06;;
45109;Laerm;30447;48.742;8.972;2022-12-18T07:13:20;40.21;36.69;53.41;;
45109;Laerm;30447;48.742;8.972;2022-12-18T07:15:47;40.20;36.91;43.29;;
45109;Laerm;30447;48.742;8.972;2022-12-18T07:18:13;40.68;37.52;54.36;;
45109;Laerm;30447;48.742;8.972;2022-12-18T07:20:40;40.68;36.45;48.26;;
45109;Laerm;30447;48.742;8.972;2022-12-18T07:23:07;40.16;36.10;54.07;;
45109;Laerm;30447;48.742;8.972;2022-12-18T07:25:38;39.97;36.20;42.53;;
45109;Laerm;30447;48.742;8.972;2022-12-18T07:28:05;40.05;35.66;50.58;;
45109;Laerm;30447;48.742;8.972;2022-12-18T07:30:32;40.00;35.94;46.87;;
45109;Laerm;30447;48.742;8.972;2022-12-18T07:32:59;40.75;37.12;53.43;;
45109;Laerm;30447;48.742;8.972;2022-12-18T07:35:25;40.28;36.20;54.62;;
45109;Laerm;30447;48.742;8.972;2022-12-18T07:37:52;40.12;36.45;50.33;;
45109;Laerm;30447;48.742;8.972;2022-12-18T07:40:18;40.00;35.36;45.72;;
45109;Laerm;30447;48.742;8.972;2022-12-18T07:42:45;40.26;36.69;56.87;;
45109;Laerm;30447;48.742;8.972;2022-12-18T07:45:12;39.91;36.45;53.79;;
45109;Laerm;30447;48.742;8.972;2022-12-18T07:47:38;40.68;37.70;54.82;;
45109;Laerm;30447;48.742;8.972;2022-12-18T07:50:07;40.59;37.32;56.33;;
45109;Laerm;30447;48.742;8.972;2022-12-18T07:52:34;40.95;37.12;54.09;;
45109;Laerm;30447;48.742;8.972;2022-12-18T07:55:01;40.36;36.45;44.07;;
45109;Laerm;30447;48.742;8.972;2022-12-18T07:57:28;40.49;36.69;46.45;;
45109;Laerm;30447;48.742;8.972;2022-12-18T07:59:55;41.11;37.88;55.51;;
45109;Laerm;30447;48.742;8.972;2022-12-18T08:02:21;40.34;36.20;43.09;;
45109;Laerm;30447;48.742;8.972;2022-12-18T08:04:48;40.36;36.77;45.99;;
45109;Laerm;30447;48.742;8.972;2022-12-18T08:07:15;40.80;37.12;56.26;;
45109;Laerm;30447;48.742;8.972;2022-12-18T08:09:41;39.97;36.91;42.09;;
45109;Laerm;30447;48.742;8.972;2022-12-18T08:12:08;40.44;36.91;46.82;;
45109;Laerm;30447;48.742;8.972;2022-12-18T08:14:34;40.52;36.45;49.87;;
45109;Laerm;30447;48.742;8.972;2022-12-18T08:17:01;40.12;36.69;51.45;;
45109;Laerm;30447;48.742;8.972;2022-12-18T08:19:28;40.57;36.91;55.30;;
45109;Laerm;30447;48.742;8.972;2022-12-18T08:21:54;41.89;36.69;60.37;;
45109;Laerm;30447;48.742;8.972;2022-12-18T08:24:21;42.65;37.12;65.68;;
45109;Laerm;30447;48.742;8.972;2022-12-18T08:26:48;40.45;35.04;43.58;;
45109;Laerm;30447;48.742;8.972;2022-12-18T08:29:14;40.35;35.94;53.49;;
45109;Laerm;30447;48.742;8.972;2022-12-18T08:31:41;40.61;36.69;50.42;;
45109;Laerm;30447;48.742;8.972;2022-12-18T08:34:08;40.29;36.69;45.17;;
45109;Laerm;30447;48.742;8.972;2022-12-18T08:36:35;40.73;36.69;60.80;;
45109;Laerm;30447;48.742;8.972;2022-12-18T08:39:01;40.48;36.91;47.30;;
45109;Laerm;30447;48.742;8.972;2022-12-18T08:41:28;41.16;37.12;57.52;;
45109;Laerm;30447;48.742;8.972;2022-12-18T08:43:55;40.56;37.32;55.97;;
45109;Laerm;30447;48.742;8.972;2022-12-18T08:46:43;39.97;35.94;47.79;;
45109;Laerm;30447;48.742;8.972;2022-12-18T08:49:11;39.84;36.45;52.12;;
45109;Laerm;30447;48.742;8.972;2022-12-18T08:51:39;40.80;37.12;52.53;;
45109;Laerm;30447;48.742;8.972;2022-12-18T08:54:06;41.24;37.52;47.93;;
45109;Laerm;30447;48.742;8.972;2022-12-18T08:56:33;40.91;36.91;51.62;;
45109;Laerm;30447;48.742;8.972;2022-12-18T08:59:00;41.08;37.35;53.05;;
45109;Laerm;30447;48.742;8.972;2022-12-18T09:01:27;40.57;36.45;48.73;;
45109;Laerm;30447;48.742;8.972;2022-12-18T09:03:54;40.43;37.12;50.96;;
45109;Laerm;30447;48.742;8.972;2022-12-18T09:06:23;40.99;36.91;60.57;;
45109;Laerm;30447;48.742;8.972;2022-12-18T09:08:50;41.31;36.56;59.38;;
45109;Laerm;30447;48.742;8.972;2022-12-18T09:11:24;40.08;35.94;43.44;;
45109;Laerm;30447;48.742;8.972;2022-12-18T09:13:53;39.92;35.94;51.53;;
45109;Laerm;30447;48.742;8.972;2022-12-18T09:16:22;39.88;34.69;52.31;;
45109;Laerm;30447;48.742;8.972;2022-12-18T09:18:49;40.72;36.45;53.86;;
45109;Laerm;30447;48.742;8.972;2022-12-18T09:21:19;40.09;36.45;44.76;;
45109;Laerm;30447;48.742;8.972;2022-12-18T09:23:53;40.72;37.12;49.98;;
45109;Laerm;30447;48.742;8.972;2022-12-18T09:26:23;40.65;37.12;56.22;;
45109;Laerm;30447;48.742;8.972;2022-12-18T09:28:51;39.90;36.69;44.43;;
45109;Laerm;30447;48.742;8.972;2022-12-18T09:31:21;39.64;35.66;43.89;;
45109;Laerm;30447;48.742;8.972;2022-12-18T09:33:48;39.42;35.36;45.72;;
45109;Laerm;30447;48.742;8.972;2022-12-18T09:36:17;39.53;35.66;44.27;;
45109;Laerm;30447;48.742;8.972;2022-12-18T09:38:45;40.18;36.91;48.83;;
45109;Laerm;30447;48.742;8.972;2022-12-18T09:44:57;39.73;35.36;45.63;;
45109;Laerm;30447;48.742;8.972;2022-12-18T09:47:28;39.89;35.04;44.11;;
45109;Laerm;30447;48.742;8.972;2022-12-18T09:50:04;39.90;36.45;44.43;;
45109;Laerm;30447;48.742;8.972;2022-12-18T09:52:45;40.02;36.45;44.80;;
45109;Laerm;30447;48.742;8.972;2022-12-18T09:55:28;43.58;36.91;69.79;;
45109;Laerm;30447;48.742;8.972;2022-12-18T09:58:24;43.49;36.45;66.36;;
45109;Laerm;30447;48.742;8.972;2022-12-18T10:00:53;40.31;35.94;58.10;;
45109;Laerm;30447;48.742;8.972;2022-12-18T10:03:21;39.61;35.94;50.30;;
45109;Laerm;30447;48.742;8.972;2022-12-18T10:09:01;39.56;35.66;46.55;;
45109;Laerm;30447;48.742;8.972;2022-12-18T10:11:51;39.70;36.20;45.51;;
45109;Laerm;30447;48.742;8.972;2022-12-18T10:14:34;39.83;35.94;43.94;;
45109;Laerm;30447;48.742;8.972;2022-12-18T10:20:27;40.42;35.94;48.16;;
45109;Laerm;30447;48.742;8.972;2022-12-18T10:23:01;39.75;36.69;50.48;;
45109;Laerm;30447;48.742;8.972;2022-12-18T10:26:15;39.41;35.94;42.64;;
45109;Laerm;30447;48.742;8.972;2022-12-18T10:28:43;39.81;35.04;48.36;;
45109;Laerm;30447;48.742;8.972;2022-12-18T10:31:20;39.63;35.04;49.72;;
45109;Laerm;30447;48.742;8.972;2022-12-18T10:33:47;39.73;36.20;50.99;;
45109;Laerm;30447;48.742;8.972;2022-12-18T10:36:15;40.04;35.36;45.33;;
45109;Laerm;30447;48.742;8.972;2022-12-18T10:38:42;42.14;36.45;53.04;;
45109;Laerm;30447;48.742;8.972;2022-12-18T10:43:44;39.87;35.36;43.39;;
45109;Laerm;30447;48.742;8.972;2022-12-18T10:46:14;39.94;35.94;54.95;;
45109;Laerm;30447;48.742;8.972;2022-12-18T10:48:56;40.68;36.91;59.14;;
45109;Laerm;30447;48.742;8.972;2022-12-18T10:51:28;39.98;36.45;42.71;;
45109;Laerm;30447;48.742;8.972;2022-12-18T10:56:34;39.87;35.66;43.63;;
45109;Laerm;30447;48.742;8.972;2022-12-18T10:59:10;39.73;36.69;44.03;;
45109;Laerm;30447;48.742;8.972;2022-12-18T11:01:57;41.61;36.45;54.26;;
45109;Laerm;30447;48.742;8.972;2022-12-18T11:04:30;41.27;37.52;59.17;;
45109;Laerm;30447;48.742;8.972;2022-12-18T11:07:07;40.35;36.45;46.20;;
45109;Laerm;30447;48.742;8.972;2022-12-18T11:09:40;39.96;35.94;43.64;;
45109;Laerm;30447;48.742;8.972;2022-12-18T11:12:19;40.10;36.45;44.62;;
45109;Laerm;30447;48.742;8.972;2022-12-18T11:14:52;40.10;35.66;48.42;;
45109;Laerm;30447;48.742;8.972;2022-12-18T11:17:31;42.92;36.69;62.67;;
45109;Laerm;30447;48.742;8.972;2022-12-18T11:20:05;39.47;35.94;43.68;;
45109;Laerm;30447;48.742;8.972;2022-12-18T11:22:36;40.15;35.36;51.02;;
45109;Laerm;30447;48.742;8.972;2022-12-18T11:25:18;39.96;36.45;43.90;;
45109;Laerm;30447;48.742;8.972;2022-12-18T11:27:54;40.06;35.94;50.10;;
45109;Laerm;30447;48.742;8.972;2022-12-18T11:30:30;39.90;36.20;52.29;;
45109;Laerm;30447;48.742;8.972;2022-12-18T11:33:05;40.14;36.20;45.23;;
45109;Laerm;30447;48.742;8.972;2022-12-18T11:35:52;40.20;35.94;51.50;;
45109;Laerm;30447;48.742;8.972;2022-12-18T11:38:30;39.99;35.66;47.96;;
45109;Laerm;30447;48.742;8.972;2022-12-18T11:41:13;40.10;35.94;43.58;;
45109;Laerm;30447;48.742;8.972;2022-12-18T11:43:54;39.76;35.36;45.89;;
45109;Laerm;30447;48.742;8.972;2022-12-18T11:46:37;40.25;35.94;51.04;;
45109;Laerm;30447;48.742;8.972;2022-12-18T11:49:18;40.62;35.94;50.15;;
45109;Laerm;30447;48.742;8.972;2022-12-18T11:51:59;40.49;36.45;52.58;;
45109;Laerm;30447;48.742;8.972;2022-12-18T11:54:28;39.88;36.45;42.47;;
45109;Laerm;30447;48.742;8.972;2022-12-18T12:00:15;40.13;35.94;45.72;;
45109;Laerm;30447;48.742;8.972;2022-12-18T12:17:59;39.87;36.20;46.07;;
45109;Laerm;30447;48.742;8.972;2022-12-18T12:26:44;40.92;36.45;67.22;;
45109;Laerm;30447;48.742;8.972;2022-12-18T12:29:27;40.25;36.20;53.26;;
45109;Laerm;30447;48.742;8.972;2022-12-18T12:32:59;39.91;36.20;42.98;;
45109;Laerm;30447;48.742;8.972;2022-12-18T12:36:07;40.01;36.45;49.30;;
45109;Laerm;30447;48.742;8.972;2022-12-18T12:39:05;39.78;35.66;43.86;;
45109;Laerm;30447;48.742;8.972;2022-12-18T12:41:35;39.52;35.66;44.15;;
45109;Laerm;30447;48.742;8.972;2022-12-18T12:44:38;39.78;35.94;60.15;;
45109;Laerm;30447;48.742;8.972;2022-12-18T12:47:47;39.73;36.20;42.41;;
45109;Laerm;30447;48.742;8.972;2022-12-18T12:50:18;39.47;35.66;42.47;;
45109;Laerm;30447;48.742;8.972;2022-12-18T12:52:53;39.66;35.04;44.47;;
45109;Laerm;30447;48.742;8.972;2022-12-18T12:55:28;39.82;35.94;46.82;;
45109;Laerm;30447;48.742;8.972;2022-12-18T13:01:21;39.43;35.66;45.11;;
45109;Laerm;30447;48.742;8.972;2022-12-18T13:04:15;39.43;35.36;42.22;;
45109;Laerm;30447;48.742;8.972;2022-12-18T13:06:56;40.19;35.66;54.75;;
45109;Laerm;30447;48.742;8.972;2022-12-18T13:09:24;39.64;34.69;43.58;;
45109;Laerm;30447;48.742;8.972;2022-12-18T13:11:51;39.47;35.04;49.14;;
45109;Laerm;30447;48.742;8.972;2022-12-18T13:14:40;40.48;35.94;62.00;;
45109;Laerm;30447;48.742;8.972;2022-12-18T13:20:03;40.18;35.66;58.18;;
45109;Laerm;30447;48.742;8.972;2022-12-18T13:22:38;39.92;35.66;44.39;;
45109;Laerm;30447;48.742;8.972;2022-12-18T13:25:34;40.10;36.69;45.91;;
45109;Laerm;30447;48.742;8.972;2022-12-18T13:34:25;39.49;35.94;44.83;;
45109;Laerm;30447;48.742;8.972;2022-12-18T13:36:54;40.04;35.36;51.04;;
45109;Laerm;30447;48.742;8.972;2022-12-18T13:39:31;40.06;35.94;45.04;;
45109;Laerm;30447;48.742;8.972;2022-12-18T13:44:39;40.32;36.91;51.85;;
45109;Laerm;30447;48.742;8.972;2022-12-18T13:47:31;40.12;35.94;51.16;;
45109;Laerm;30447;48.742;8.972;2022-12-18T13:50:02;39.86;36.91;53.47;;
45109;Laerm;30447;48.742;8.972;2022-12-18T13:52:39;40.26;36.45;53.25;;
45109;Laerm;30447;48.742;8.972;2022-12-18T13:55:18;44.90;36.45;62.05;;
45109;Laerm;30447;48.742;8.972;2022-12-18T13:57:46;40.20;35.94;51.47;;
45109;Laerm;30447;48.742;8.972;2022-12-18T14:02:50;39.99;36.45;53.80;;
45109;Laerm;30447;48.742;8.972;2022-12-18T14:05:33;40.64;37.12;49.32;;
45109;Laerm;30447;48.742;8.972;2022-12-18T14:08:10;40.22;35.04;49.32;;
45109;Laerm;30447;48.742;8.972;2022-12-18T14:10:42;40.38;35.94;42.93;;
45109;Laerm;30447;48.742;8.972;2022-12-18T14:13:29;40.18;35.94;43.86;;
45109;Laerm;30447;48.742;8.972;2022-12-18T14:16:00;40.55;36.69;57.57;;
45109;Laerm;30447;48.742;8.972;2022-12-18T14:21:01;40.20;35.94;45.25;;
45109;Laerm;30447;48.742;8.972;2022-12-18T14:23:38;39.86;36.45;43.72;;
45109;Laerm;30447;48.742;8.972;2022-12-18T14:26:27;39.80;35.36;43.14;;
45109;Laerm;30447;48.742;8.972;2022-12-18T14:28:56;40.08;36.20;46.15;;
45109;Laerm;30447;48.742;8.972;2022-12-18T14:31:27;47.13;36.20;60.41;;
45109;Laerm;30447;48.742;8.972;2022-12-18T14:33:55;42.78;35.94;53.18;;
45109;Laerm;30447;48.742;8.972;2022-12-18T14:36:28;40.10;36.20;43.81;;
45109;Laerm;30447;48.742;8.972;2022-12-18T14:38:58;40.91;36.45;50.85;;
45109;Laerm;30447;48.742;8.972;2022-12-18T14:41:26;40.55;36.45;56.32;;
45109;Laerm;30447;48.742;8.972;2022-12-18T14:43:54;40.90;36.45;59.19;;
45109;Laerm;30447;48.742;8.972;2022-12-18T14:46:32;41.11;36.10;61.77;;
45109;Laerm;30447;48.742;8.972;2022-12-18T14:52:00;40.32;35.66;44.47;;
45109;Laerm;30447;48.742;8.972;2022-12-18T14:54:29;40.30;36.45;47.54;;
45109;Laerm;30447;48.742;8.972;2022-12-18T14:57:23;43.64;36.45;68.28;;
45109;Laerm;30447;48.742;8.972;2022-12-18T14:59:51;41.47;36.20;56.95;;
45109;Laerm;30447;48.742;8.972;2022-12-18T15:02:28;40.72;36.45;58.84;;
45109;Laerm;30447;48.742;8.972;2022-12-18T15:07:45;40.31;36.69;46.13;;
45109;Laerm;30447;48.742;8.972;2022-12-18T15:10:19;40.28;37.12;48.26;;
45109;Laerm;30447;48.742;8.972;2022-12-18T15:20:53;39.80;35.66;45.04;;
45109;Laerm;30447;48.742;8.972;2022-12-18T15:23:47;40.02;36.45;51.56;;
45109;Laerm;30447;48.742;8.972;2022-12-18T15:26:19;40.21;35.94;49.96;;
45109;Laerm;30447;48.742;8.972;2022-12-18T15:28:51;40.74;37.12;61.15;;
45109;Laerm;30447;48.742;8.972;2022-12-18T15:31:58;40.48;35.66;54.93;;
45109;Laerm;30447;48.742;8.972;2022-12-18T15:34:27;41.19;36.45;62.50;;
45109;Laerm;30447;48.742;8.972;2022-12-18T15:36:54;40.25;36.69;48.12;;
45109;Laerm;30447;48.742;8.972;2022-12-18T15:39:20;40.49;36.45;54.71;;
45109;Laerm;30447;48.742;8.972;2022-12-18T15:41:47;40.63;37.12;51.26;;
45109;Laerm;30447;48.742;8.972;2022-12-18T15:44:33;40.67;36.45;59.69;;
45109;Laerm;30447;48.742;8.972;2022-12-18T15:47:00;40.59;35.94;53.65;;
45109;Laerm;30447;48.742;8.972;2022-12-18T15:49:26;40.19;36.91;42.53;;
45109;Laerm;30447;48.742;8.972;2022-12-18T15:52:02;40.57;35.94;56.46;;
45109;Laerm;30447;48.742;8.972;2022-12-18T15:54:29;40.36;36.69;44.80;;